Time;durP1;ratioP1;P1;durP2;ratioP2;P2;SDS_P1;SDS_P2;PMS_P1;PMS_P2;Temp;Humidity;BMP_temperature;BMP_pressure;BME280_temperature;BME280_humidity;BME280_pressure;Samples;Min_cycle;Max_cycle;Signal;HPM_P1;HPM_P2
2021/12/12 00:02:31;;;;;;;93.35;41.60;;;4.40;99.90;;;;;;5101906;28;20036;-68
2021/12/12 00:04:58;;;;;;;87.30;42.97;;;4.30;99.90;;;;;;5085637;28;20040;-68
2021/12/12 00:07:29;;;;;;;82.05;36.92;;;4.40;99.90;;;;;;5068482;28;20055;-68
2021/12/12 00:10:03;;;;;;;83.55;41.67;;;4.50;99.90;;;;;;5085449;28;20515;-68
2021/12/12 00:12:36;;;;;;;86.95;40.25;;;4.50;99.90;;;;;;5085433;28;20044;-68
2021/12/12 00:15:04;;;;;;;81.30;42.05;;;4.50;99.90;;;;;;5085957;28;20093;-69
2021/12/12 00:17:30;;;;;;;74.30;40.72;;;4.30;99.90;;;;;;5085738;28;20103;-68
2021/12/12 00:19:56;;;;;;;83.75;42.10;;;4.40;99.90;;;;;;5086791;28;20052;-68
2021/12/12 00:22:25;;;;;;;84.45;39.67;;;4.30;99.90;;;;;;5103254;28;20047;-68
2021/12/12 00:24:52;;;;;;;85.22;42.22;;;4.40;99.90;;;;;;5085421;28;20108;-69
2021/12/12 00:27:19;;;;;;;65.05;31.38;;;4.40;99.90;;;;;;5086140;28;20048;-68
2021/12/12 00:29:45;;;;;;;88.75;41.55;;;4.40;99.90;;;;;;5086931;28;20048;-68
2021/12/12 00:32:14;;;;;;;79.40;37.22;;;4.40;99.90;;;;;;5103536;28;20040;-68
2021/12/12 00:34:50;;;;;;;70.50;35.50;;;4.30;99.90;;;;;;5103801;28;20076;-69
2021/12/12 00:37:17;;;;;;;78.88;38.80;;;4.40;99.90;;;;;;5086337;28;20074;-68
2021/12/12 00:39:48;;;;;;;84.60;40.78;;;4.40;99.90;;;;;;5086437;28;20114;-69
2021/12/12 00:42:18;;;;;;;84.85;39.88;;;4.40;99.90;;;;;;5085175;28;20048;-68
2021/12/12 00:44:51;;;;;;;78.93;37.67;;;4.40;99.90;;;;;;5086484;28;20100;-68
2021/12/12 00:47:17;;;;;;;75.63;38.83;;;4.50;99.90;;;;;;5086216;28;20046;-69
2021/12/12 00:49:44;;;;;;;76.35;39.53;;;4.50;99.90;;;;;;5084945;28;20040;-68
2021/12/12 00:52:14;;;;;;;71.22;36.38;;;4.40;99.90;;;;;;5085256;28;20083;-69
2021/12/12 00:54:41;;;;;;;75.67;36.83;;;4.40;99.90;;;;;;5085189;28;20205;-68
2021/12/12 00:57:10;;;;;;;75.80;38.50;;;4.40;99.90;;;;;;5102518;28;20059;-69
2021/12/12 00:59:36;;;;;;;71.22;38.63;;;4.30;99.90;;;;;;5103924;28;20043;-69
2021/12/12 01:02:06;;;;;;;66.25;30.98;;;4.60;99.90;;;;;;5085309;28;20032;-69
2021/12/12 01:04:40;;;;;;;;;;;4.50;99.90;;;;;;5086052;28;20044;-69
2021/12/12 01:07:11;;;;;;;66.43;35.83;;;4.40;99.90;;;;;;5088483;28;19920;-69
2021/12/12 01:09:42;;;;;;;69.78;33.92;;;4.50;99.90;;;;;;5086875;28;20040;-69
2021/12/12 01:12:09;;;;;;;;;;;4.50;99.90;;;;;;5107117;28;20511;-69
2021/12/12 01:14:41;;;;;;;60.97;30.25;;;4.70;99.90;;;;;;5088601;28;19920;-68
2021/12/12 01:17:21;;;;;;;68.07;35.70;;;4.70;99.90;;;;;;5089882;28;20050;-69
2021/12/12 01:19:53;;;;;;;75.85;37.78;;;4.70;99.90;;;;;;5085940;28;20078;-69
2021/12/12 01:22:32;;;;;;;66.68;35.75;;;4.50;99.90;;;;;;5067542;28;20048;-69
2021/12/12 01:25:06;;;;;;;71.15;33.58;;;4.50;99.90;;;;;;5089546;28;20108;-69
2021/12/12 01:27:32;;;;;;;69.13;32.83;;;4.50;99.90;;;;;;5089224;28;20078;-68
2021/12/12 01:29:58;;;;;;;65.72;34.22;;;4.40;99.90;;;;;;5088621;28;20048;-69
2021/12/12 01:32:31;;;;;;;70.55;36.17;;;4.40;99.90;;;;;;5088132;28;20055;-68
2021/12/12 01:34:58;;;;;;;67.60;32.58;;;4.40;99.90;;;;;;5088119;28;20044;-69
2021/12/12 01:40:08;;;;;;;53.08;29.50;;;4.40;99.90;;;;;;5088397;28;20056;-68
2021/12/12 01:42:44;;;;;;;61.47;31.33;;;4.60;99.90;;;;;;5100971;28;20048;-69
2021/12/12 01:45:26;;;;;;;63.35;35.25;;;4.90;99.90;;;;;;5089634;28;20052;-68
2021/12/12 01:48:03;;;;;;;70.00;33.38;;;4.80;99.90;;;;;;5106883;28;20047;-68
2021/12/12 01:50:34;;;;;;;64.60;34.85;;;4.60;99.90;;;;;;5106990;28;20115;-69
2021/12/12 01:53:05;;;;;;;52.55;27.63;;;4.70;99.90;;;;;;5087735;28;20083;-68
2021/12/12 01:55:36;;;;;;;62.72;30.52;;;4.80;99.90;;;;;;5105951;28;20056;-68
2021/12/12 01:58:09;;;;;;;64.47;34.42;;;4.80;99.90;;;;;;5105827;28;20070;-68
2021/12/12 02:00:44;;;;;;;63.08;28.98;;;4.80;99.90;;;;;;5084411;28;20079;-68
2021/12/12 02:03:14;;;;;;;63.30;29.50;;;5.00;99.90;;;;;;5088683;28;20047;-69
2021/12/12 02:05:40;;;;;;;56.55;29.67;;;5.00;99.90;;;;;;5083043;28;20036;-69
2021/12/12 02:08:09;;;;;;;59.10;30.02;;;5.00;99.90;;;;;;5087727;28;20083;-68
2021/12/12 02:10:46;;;;;;;57.08;26.30;;;5.00;99.90;;;;;;5105332;28;20428;-69
2021/12/12 02:13:14;;;;;;;55.63;30.20;;;5.00;99.90;;;;;;5105930;28;20051;-69
2021/12/12 02:15:44;;;;;;;54.45;31.80;;;4.90;99.90;;;;;;5105589;28;20072;-68
2021/12/12 02:18:13;;;;;;;60.22;32.08;;;4.80;99.90;;;;;;5105000;28;20119;-69
2021/12/12 02:20:53;;;;;;;56.90;30.65;;;4.80;99.90;;;;;;5106037;28;20040;-69
2021/12/12 02:23:34;;;;;;;58.05;29.63;;;4.80;99.90;;;;;;5086968;28;20068;-68
2021/12/12 02:37:05;;;;;;;50.80;26.80;;;4.80;99.90;;;;;;5073514;28;20126;-69
2021/12/12 02:39:33;;;;;;;48.03;27.70;;;4.80;99.90;;;;;;5105252;28;20043;-69
2021/12/12 02:42:04;;;;;;;48.30;26.83;;;4.90;99.90;;;;;;5104870;28;20052;-69
2021/12/12 02:44:32;;;;;;;54.85;29.42;;;5.10;99.90;;;;;;5106190;28;20082;-69
2021/12/12 02:47:08;;;;;;;43.47;24.48;;;4.90;99.90;;;;;;5088077;28;20055;-69
2021/12/12 02:49:41;;;;;;;46.17;26.33;;;5.00;99.90;;;;;;5086933;28;20056;-69
2021/12/12 02:52:11;;;;;;;49.60;28.10;;;4.90;99.90;;;;;;5087119;28;20036;-68
2021/12/12 02:54:37;;;;;;;46.80;24.90;;;4.70;99.90;;;;;;5080121;28;20058;-69
2021/12/12 02:57:04;;;;;;;40.50;23.40;;;4.90;99.90;;;;;;5105067;28;20051;-69
2021/12/12 02:59:30;;;;;;;33.13;17.70;;;5.10;99.90;;;;;;5103614;28;20059;-69
2021/12/12 03:02:00;;;;;;;45.72;25.13;;;5.10;99.90;;;;;;5086463;28;20040;-69
2021/12/12 03:04:28;;;;;;;41.00;23.55;;;5.20;99.90;;;;;;5080072;28;20112;-69
2021/12/12 03:06:55;;;;;;;42.25;24.63;;;5.20;99.90;;;;;;5087359;28;20081;-69
2021/12/12 03:09:25;;;;;;;43.38;24.80;;;5.00;99.90;;;;;;5086153;28;20048;-68
2021/12/12 03:11:55;;;;;;;43.03;24.48;;;5.00;99.90;;;;;;5086311;28;20457;-69
2021/12/12 03:14:21;;;;;;;35.58;19.17;;;5.10;99.90;;;;;;5103917;28;20051;-68
2021/12/12 03:16:48;;;;;;;38.80;23.35;;;5.10;99.90;;;;;;5086380;28;20060;-69
2021/12/12 03:19:19;;;;;;;37.30;22.08;;;5.10;99.90;;;;;;5086063;28;20452;-69
2021/12/12 03:21:45;;;;;;;32.97;21.40;;;5.30;99.90;;;;;;5085916;28;20048;-68
2021/12/12 03:24:25;;;;;;;35.88;20.92;;;5.30;99.90;;;;;;5087389;28;20048;-68
2021/12/12 03:26:56;;;;;;;26.45;16.55;;;5.30;99.90;;;;;;5105962;28;20087;-69
2021/12/12 03:29:22;;;;;;;42.97;23.58;;;5.20;99.90;;;;;;5104422;28;20036;-69
2021/12/12 03:31:52;;;;;;;37.72;21.33;;;4.90;99.90;;;;;;5085970;28;20052;-69
2021/12/12 03:34:22;;;;;;;37.75;19.83;;;5.20;99.90;;;;;;5086857;28;20040;-69
2021/12/12 03:36:48;;;;;;;35.03;20.57;;;5.30;99.90;;;;;;5085979;28;20529;-68
2021/12/12 03:39:25;;;;;;;41.45;21.23;;;5.40;99.90;;;;;;5079022;28;20290;-69
2021/12/12 03:41:53;;;;;;;26.80;14.23;;;5.20;99.90;;;;;;5086146;28;20492;-69
2021/12/12 03:44:22;;;;;;;40.47;21.23;;;5.40;99.90;;;;;;5070035;28;20077;-69
2021/12/12 03:46:55;;;;;;;35.63;20.63;;;5.30;99.90;;;;;;5103881;28;20132;-69
2021/12/12 03:49:22;;;;;;;42.78;21.25;;;5.20;99.90;;;;;;5085690;28;20500;-69
2021/12/12 03:51:49;;;;;;;35.75;19.17;;;5.20;99.90;;;;;;5085634;28;20557;-68
2021/12/12 03:54:16;;;;;;;35.17;19.15;;;5.40;99.90;;;;;;5085855;28;20036;-69
2021/12/12 03:56:44;;;;;;;36.58;19.50;;;5.30;99.90;;;;;;5103827;28;20561;-68
2021/12/12 03:59:12;;;;;;;28.13;15.00;;;5.40;99.90;;;;;;5085477;28;20055;-68
2021/12/12 04:01:43;;;;;;;32.92;19.67;;;5.40;99.90;;;;;;5085227;28;20081;-69
2021/12/12 04:04:19;;;;;;;35.30;18.98;;;5.50;99.90;;;;;;5085369;28;20136;-68
2021/12/12 04:06:47;;;;;;;33.83;17.98;;;5.40;99.90;;;;;;5101834;28;20048;-68
2021/12/12 04:09:13;;;;;;;34.72;19.50;;;5.40;99.90;;;;;;5085568;28;20036;-69
2021/12/12 04:11:46;;;;;;;28.50;16.58;;;5.40;99.90;;;;;;5085027;28;20070;-68
2021/12/12 04:14:12;;;;;;;31.63;18.58;;;5.60;99.90;;;;;;5085358;28;20062;-68
2021/12/12 04:16:41;;;;;;;32.40;18.38;;;5.60;99.90;;;;;;5086189;28;20044;-68
2021/12/12 04:19:07;;;;;;;33.08;20.02;;;5.50;99.90;;;;;;5085712;28;20055;-68
2021/12/12 04:21:35;;;;;;;30.10;18.40;;;5.50;99.90;;;;;;5085265;28;20140;-68
2021/12/12 04:24:01;;;;;;;28.15;19.98;;;5.50;99.90;;;;;;5086282;28;20048;-68
2021/12/12 04:26:30;;;;;;;28.60;18.10;;;5.40;99.90;;;;;;5103466;28;20055;-69
2021/12/12 04:29:11;;;;;;;34.47;18.13;;;5.60;99.90;;;;;;5100916;28;20464;-68
2021/12/12 04:31:37;;;;;;;;;;;5.50;99.90;;;;;;5104991;28;20070;-68
2021/12/12 04:34:04;;;;;;;27.88;16.85;;;5.40;99.90;;;;;;5086374;28;19942;-68
2021/12/12 04:36:40;;;;;;;39.72;19.77;;;5.50;99.90;;;;;;5086202;28;20681;-68
2021/12/12 04:39:37;;;;;;;35.75;19.80;;;5.40;99.90;;;;;;5085195;28;20123;-68
2021/12/12 04:42:16;;;;;;;29.17;19.20;;;5.20;99.90;;;;;;5100970;28;20056;-68
2021/12/12 04:44:43;;;;;;;28.50;18.20;;;5.40;99.90;;;;;;5107885;28;20051;-68
2021/12/12 04:50:16;;;;;;;32.65;18.63;;;5.50;99.90;;;;;;5089261;28;20063;-68
2021/12/12 04:53:00;;;;;;;30.98;16.50;;;5.30;99.90;;;;;;5087298;28;20048;-68
2021/12/12 04:55:31;;;;;;;32.58;16.45;;;5.50;99.90;;;;;;5086449;28;20074;-68
2021/12/12 04:58:04;;;;;;;27.30;16.30;;;5.50;99.90;;;;;;5090272;28;20044;-68
2021/12/12 05:00:38;;;;;;;27.60;16.75;;;5.50;99.90;;;;;;5088599;28;20133;-68
2021/12/12 05:03:13;;;;;;;21.40;14.48;;;5.40;99.90;;;;;;5106979;28;20075;-68
2021/12/12 05:05:54;;;;;;;27.23;16.73;;;5.40;99.90;;;;;;5087494;28;20056;-68
2021/12/12 05:08:37;;;;;;;24.48;15.25;;;5.40;99.90;;;;;;5088508;28;20051;-68
2021/12/12 05:11:30;;;;;;;23.23;15.95;;;5.30;99.90;;;;;;5088325;28;20044;-68
2021/12/12 05:14:04;;;;;;;24.75;16.40;;;5.30;99.90;;;;;;5106852;28;20040;-68
2021/12/12 05:16:34;;;;;;;18.77;13.77;;;5.20;99.90;;;;;;5089023;28;20284;-68
2021/12/12 05:19:06;;;;;;;;;;;5.30;99.90;;;;;;5090299;28;20104;-68
2021/12/12 05:21:36;;;;;;;20.65;14.15;;;5.30;99.90;;;;;;5089232;28;20022;-68
2021/12/12 05:24:04;;;;;;;;;;;5.30;99.90;;;;;;5089443;28;20100;-68
2021/12/12 05:26:49;;;;;;;19.73;14.02;;;5.30;99.90;;;;;;5089189;28;19931;-68
2021/12/12 05:29:19;;;;;;;21.65;12.75;;;5.10;99.90;;;;;;5089513;28;20067;-68
2021/12/12 05:31:51;;;;;;;14.75;10.57;;;5.30;99.90;;;;;;5087774;28;20055;-68
2021/12/12 05:34:20;;;;;;;18.00;14.02;;;5.40;99.90;;;;;;5088832;28;20044;-68
2021/12/12 05:36:47;;;;;;;20.00;12.15;;;5.30;99.90;;;;;;5087636;28;20500;-68
2021/12/12 05:39:15;;;;;;;17.75;12.00;;;5.30;99.90;;;;;;5088299;28;20059;-68
2021/12/12 05:41:41;;;;;;;17.83;11.88;;;5.30;99.90;;;;;;5106003;28;20043;-68
2021/12/12 05:44:08;;;;;;;18.58;14.07;;;5.50;99.90;;;;;;5106492;28;20071;-68
2021/12/12 05:46:34;;;;;;;24.38;14.30;;;5.40;99.90;;;;;;5087857;28;20055;-68
2021/12/12 05:49:04;;;;;;;23.70;14.35;;;5.20;99.90;;;;;;5088552;28;20056;-68
2021/12/12 05:51:31;;;;;;;19.60;11.82;;;5.30;99.90;;;;;;5106458;28;20100;-68
2021/12/12 05:53:56;;;;;;;18.48;12.48;;;5.30;99.90;;;;;;5087781;28;20105;-68
2021/12/12 05:56:28;;;;;;;18.15;13.05;;;5.30;99.90;;;;;;5087973;28;20048;-68
2021/12/12 05:58:56;;;;;;;19.33;13.93;;;5.30;99.90;;;;;;5088471;28;20062;-68
2021/12/12 06:01:23;;;;;;;14.00;9.13;;;5.40;99.90;;;;;;5088474;28;20040;-68
2021/12/12 06:03:50;;;;;;;17.88;11.02;;;5.40;99.90;;;;;;5087087;28;20056;-68
2021/12/12 06:06:22;;;;;;;17.35;12.38;;;5.60;99.90;;;;;;5088866;28;20044;-68
2021/12/12 06:08:49;;;;;;;20.05;13.27;;;5.50;99.90;;;;;;5107037;28;20048;-68
2021/12/12 06:11:17;;;;;;;20.02;13.68;;;5.50;99.90;;;;;;5105992;28;20047;-68
2021/12/12 06:13:43;;;;;;;20.10;13.55;;;5.40;99.90;;;;;;5088033;28;20055;-68
2021/12/12 06:16:18;;;;;;;16.88;12.57;;;5.50;99.90;;;;;;5087781;28;20050;-68
2021/12/12 06:18:45;;;;;;;18.30;12.73;;;5.50;99.90;;;;;;5088155;28;20113;-68
2021/12/12 06:21:11;;;;;;;19.00;12.63;;;5.40;99.90;;;;;;5071661;28;20066;-68
2021/12/12 06:23:37;;;;;;;17.25;12.80;;;5.40;99.90;;;;;;5087890;28;20063;-68
2021/12/12 06:26:03;;;;;;;16.77;11.38;;;5.50;99.90;;;;;;5099249;28;20535;-68
2021/12/12 06:28:33;;;;;;;13.75;9.80;;;5.50;99.90;;;;;;5106085;28;20044;-68
2021/12/12 06:31:00;;;;;;;16.73;12.38;;;5.50;99.90;;;;;;5088130;28;20097;-68
2021/12/12 06:33:26;;;;;;;14.05;11.38;;;5.50;99.90;;;;;;5087490;28;20052;-68
2021/12/12 06:35:52;;;;;;;15.98;11.38;;;5.50;99.90;;;;;;5088353;28;20127;-68
2021/12/12 06:38:19;;;;;;;18.73;11.90;;;5.60;99.90;;;;;;5088097;28;20044;-68
2021/12/12 06:40:47;;;;;;;15.40;11.43;;;5.60;99.90;;;;;;5088464;28;20054;-68
2021/12/12 06:43:16;;;;;;;16.50;11.80;;;5.60;99.90;;;;;;5087747;28;20051;-68
2021/12/12 06:45:42;;;;;;;15.45;11.35;;;5.60;99.90;;;;;;5087241;28;20071;-68
2021/12/12 06:48:10;;;;;;;15.93;11.20;;;5.70;99.90;;;;;;5071211;28;20052;-68
2021/12/12 06:50:39;;;;;;;16.08;11.75;;;5.70;99.90;;;;;;5106117;28;20475;-68
2021/12/12 06:53:06;;;;;;;18.75;12.25;;;5.70;99.90;;;;;;5087653;28;20079;-68
2021/12/12 06:55:32;;;;;;;13.05;10.50;;;5.80;99.90;;;;;;5087445;28;20177;-68
2021/12/12 06:57:59;;;;;;;19.00;12.73;;;5.80;99.90;;;;;;5087519;28;20529;-68
2021/12/12 07:00:26;;;;;;;16.05;11.35;;;5.80;99.90;;;;;;5087559;28;20118;-68
2021/12/12 07:02:52;;;;;;;14.98;11.43;;;5.80;99.90;;;;;;5104845;28;20040;-68
2021/12/12 07:05:23;;;;;;;16.45;11.40;;;5.70;99.90;;;;;;5087565;28;20035;-67
2021/12/12 07:07:52;;;;;;;15.80;10.10;;;5.80;99.90;;;;;;5087336;28;20089;-67
2021/12/12 07:10:24;;;;;;;15.05;10.50;;;5.90;99.90;;;;;;5105457;28;20165;-67
2021/12/12 07:12:55;;;;;;;14.98;10.82;;;5.80;99.90;;;;;;5104809;28;20182;-68
2021/12/12 07:15:24;;;;;;;14.88;10.98;;;5.80;99.90;;;;;;5087497;28;20040;-67
2021/12/12 07:17:55;;;;;;;15.52;11.40;;;5.90;99.90;;;;;;5105088;28;20554;-67
2021/12/12 07:20:21;;;;;;;16.05;10.75;;;5.90;99.90;;;;;;5070768;28;20530;-67
2021/12/12 07:22:47;;;;;;;15.43;11.30;;;5.90;99.90;;;;;;5087137;28;20074;-67
2021/12/12 07:25:14;;;;;;;15.98;11.15;;;5.80;99.90;;;;;;5087571;28;20052;-67
2021/12/12 07:27:39;;;;;;;16.67;12.27;;;5.90;99.90;;;;;;5103640;28;20032;-67
2021/12/12 07:30:09;;;;;;;19.42;12.50;;;5.90;99.90;;;;;;5105814;28;20125;-67
2021/12/12 07:32:39;;;;;;;16.00;11.10;;;5.80;99.90;;;;;;5086227;28;20054;-68
2021/12/12 07:35:10;;;;;;;15.23;10.88;;;5.90;99.90;;;;;;5105296;28;20044;-67
2021/12/12 07:37:38;;;;;;;14.55;10.50;;;5.90;99.90;;;;;;5087114;28;20051;-67
2021/12/12 07:40:08;;;;;;;14.38;10.05;;;6.00;99.90;;;;;;5086764;28;20058;-67
2021/12/12 07:42:34;;;;;;;;;;;6.00;99.90;;;;;;5104809;28;20209;-67
2021/12/12 07:45:00;;;;;;;16.58;11.30;;;5.90;99.90;;;;;;5104420;28;19929;-67
2021/12/12 07:47:28;;;;;;;19.33;12.88;;;5.90;99.90;;;;;;5087093;28;20048;-67
2021/12/12 07:49:54;;;;;;;16.23;11.02;;;5.90;99.90;;;;;;5086605;28;20113;-67
2021/12/12 07:52:25;;;;;;;17.05;12.90;;;6.00;99.90;;;;;;5104595;28;20052;-67
2021/12/12 07:54:52;;;;;;;17.60;12.90;;;5.90;99.90;;;;;;5103025;28;20100;-67
2021/12/12 07:57:19;;;;;;;20.02;13.18;;;5.90;99.90;;;;;;5086808;28;20048;-67
2021/12/12 07:59:46;;;;;;;20.15;13.52;;;5.90;99.90;;;;;;5104833;28;20051;-68
2021/12/12 08:02:15;;;;;;;19.40;12.75;;;5.90;99.90;;;;;;5086516;28;20051;-67
2021/12/12 08:04:42;;;;;;;21.07;12.37;;;6.00;99.90;;;;;;5086321;28;20051;-67
2021/12/12 08:07:11;;;;;;;19.77;13.90;;;6.00;99.90;;;;;;5069665;28;20036;-67
2021/12/12 08:09:38;;;;;;;18.48;12.52;;;6.10;99.90;;;;;;5069645;28;20498;-67
2021/12/12 08:12:05;;;;;;;17.10;12.55;;;6.20;99.90;;;;;;5103394;28;20075;-67
2021/12/12 08:14:32;;;;;;;19.73;12.40;;;6.10;99.90;;;;;;5087289;28;20044;-67
2021/12/12 08:16:58;;;;;;;15.35;10.77;;;6.10;99.90;;;;;;5089823;28;20043;-67
2021/12/12 08:19:26;;;;;;;20.00;13.60;;;6.30;99.90;;;;;;5090438;28;20036;-67
2021/12/12 08:21:56;;;;;;;19.80;12.77;;;6.20;99.90;;;;;;5090178;28;20044;-68
2021/12/12 08:24:22;;;;;;;21.50;12.98;;;6.40;99.90;;;;;;5108448;28;20511;-67
2021/12/12 08:26:48;;;;;;;18.50;11.88;;;6.30;99.90;;;;;;5107564;28;20048;-69
2021/12/12 08:29:15;;;;;;;19.48;12.75;;;6.30;99.90;;;;;;5089557;28;20047;-70
2021/12/12 08:31:41;;;;;;;16.40;11.90;;;6.30;99.90;;;;;;5089183;28;20044;-67
2021/12/12 08:34:09;;;;;;;16.48;11.38;;;6.20;99.90;;;;;;5089005;28;20066;-67
2021/12/12 08:36:38;;;;;;;15.25;11.43;;;6.30;99.90;;;;;;5089439;28;20048;-67
2021/12/12 08:39:06;;;;;;;17.58;11.70;;;6.30;99.90;;;;;;5089415;28;20044;-66
2021/12/12 08:41:32;;;;;;;15.75;11.20;;;6.40;99.90;;;;;;5088560;28;20097;-66
2021/12/12 08:43:58;;;;;;;16.40;11.90;;;6.40;99.90;;;;;;5107231;28;20036;-68
2021/12/12 08:46:25;;;;;;;16.90;10.55;;;6.30;99.90;;;;;;5107899;28;20044;-68
2021/12/12 08:48:52;;;;;;;19.30;11.55;;;6.40;99.90;;;;;;5088356;28;20076;-68
2021/12/12 08:51:31;;;;;;;17.67;11.73;;;6.40;99.90;;;;;;5088174;28;20040;-68
2021/12/12 08:54:03;;;;;;;18.55;12.68;;;6.40;99.90;;;;;;5086468;28;20058;-68
2021/12/12 08:56:45;;;;;;;18.52;12.40;;;6.40;99.90;;;;;;5088526;28;20047;-68
2021/12/12 08:59:19;;;;;;;18.08;12.32;;;6.40;99.90;;;;;;5088943;28;20051;-69
2021/12/12 09:01:47;;;;;;;18.40;11.80;;;6.40;99.90;;;;;;5088295;28;20052;-69
2021/12/12 09:04:14;;;;;;;17.50;11.05;;;6.60;99.90;;;;;;5087124;28;20047;-68
2021/12/12 09:07:00;;;;;;;18.25;12.93;;;6.60;99.90;;;;;;5106475;28;20090;-68
2021/12/12 09:09:37;;;;;;;22.50;14.43;;;6.50;99.90;;;;;;5086675;28;20048;-68
2021/12/12 09:12:05;;;;;;;20.77;14.02;;;6.40;99.90;;;;;;5087637;28;20040;-69
2021/12/12 09:14:39;;;;;;;19.27;12.50;;;6.50;99.90;;;;;;5088426;28;20075;-69
2021/12/12 09:17:30;;;;;;;18.98;13.05;;;6.60;99.90;;;;;;5086766;28;20548;-69
2021/12/12 09:20:32;;;;;;;19.35;12.73;;;6.60;99.90;;;;;;5086773;28;20059;-69
2021/12/12 09:23:34;;;;;;;20.95;12.88;;;6.70;99.90;;;;;;5087595;28;20063;-69
2021/12/12 09:26:10;;;;;;;19.70;12.93;;;6.70;99.90;;;;;;5023811;28;20054;-69
2021/12/12 09:28:49;;;;;;;20.08;12.48;;;6.70;99.90;;;;;;5007755;28;20057;-70
2021/12/12 09:31:40;;;;;;;24.48;13.43;;;6.70;99.90;;;;;;5024480;28;20121;-69
2021/12/12 09:34:45;;;;;;;19.02;13.35;;;6.70;99.90;;;;;;5005394;28;20041;-69
2021/12/12 09:37:38;;;;;;;17.98;13.00;;;6.90;99.90;;;;;;4977343;28;20114;-66
2021/12/12 09:40:21;;;;;;;19.27;12.65;;;6.90;99.90;;;;;;4972032;28;20054;-66
2021/12/12 09:43:02;;;;;;;23.38;14.18;;;6.90;99.90;;;;;;4980022;28;20082;-73
2021/12/12 09:45:31;;;;;;;23.20;14.32;;;6.90;99.90;;;;;;4961120;28;20134;-73
2021/12/12 09:51:15;;;;;;;24.67;14.73;;;6.90;99.90;;;;;;4966846;28;20043;-73
2021/12/12 09:53:55;;;;;;;28.17;16.25;;;6.90;99.90;;;;;;4942273;28;20081;-73
2021/12/12 09:56:45;;;;;;;27.10;15.23;;;6.90;99.90;;;;;;4972733;28;20051;-69
2021/12/12 09:59:39;;;;;;;34.30;16.90;;;7.00;99.90;;;;;;4967806;28;20082;-68
2021/12/12 10:02:22;;;;;;;25.92;15.05;;;7.00;99.90;;;;;;4982916;28;20159;-68
2021/12/12 10:04:53;;;;;;;29.98;17.63;;;7.10;99.90;;;;;;5013859;28;20529;-69
2021/12/12 10:07:49;;;;;;;35.33;17.45;;;7.10;99.90;;;;;;4995249;28;20054;-69
2021/12/12 10:10:51;;;;;;;32.20;17.40;;;7.20;99.90;;;;;;5008125;28;20053;-69
2021/12/12 10:13:40;;;;;;;36.65;17.83;;;7.20;99.90;;;;;;5017823;28;20131;-69
2021/12/12 10:16:38;;;;;;;32.15;18.30;;;7.20;99.90;;;;;;5071919;28;20059;-69
2021/12/12 10:19:20;;;;;;;35.13;19.75;;;7.20;99.90;;;;;;5082425;28;20157;-69
2021/12/12 10:22:33;;;;;;;32.50;17.50;;;7.20;99.90;;;;;;5105765;28;20048;-69
2021/12/12 10:25:09;;;;;;;30.42;16.88;;;7.30;99.90;;;;;;5039583;28;20049;-67
2021/12/12 10:28:01;;;;;;;30.67;17.70;;;7.40;99.90;;;;;;5044928;28;20064;-67
2021/12/12 10:30:30;;;;;;;32.00;18.40;;;7.30;99.90;;;;;;5023664;28;20056;-67
2021/12/12 10:33:20;;;;;;;30.45;16.90;;;7.40;99.90;;;;;;5045619;28;20091;-66
2021/12/12 10:36:05;;;;;;;32.45;18.25;;;7.40;99.90;;;;;;5035326;28;20053;-65
2021/12/12 10:38:53;;;;;;;31.30;17.27;;;7.50;99.90;;;;;;5029203;28;20045;-65
2021/12/12 10:41:36;;;;;;;31.33;17.38;;;7.50;99.90;;;;;;5022806;28;20436;-67
2021/12/12 10:44:26;;;;;;;29.98;16.48;;;7.50;99.90;;;;;;5058890;28;20053;-66
2021/12/12 10:47:19;;;;;;;28.52;16.02;;;7.60;99.90;;;;;;5028509;28;20040;-66
2021/12/12 10:50:02;;;;;;;28.90;14.57;;;7.70;99.90;;;;;;5046777;28;20040;-66
2021/12/12 10:52:40;;;;;;;25.50;14.70;;;7.80;99.90;;;;;;5022377;28;20055;-65
2021/12/12 10:55:17;;;;;;;28.35;15.80;;;7.80;99.90;;;;;;5049516;28;20099;-65
2021/12/12 10:57:49;;;;;;;33.63;20.33;;;7.90;99.90;;;;;;5056592;28;20052;-65
2021/12/12 11:00:28;;;;;;;26.42;16.63;;;7.80;99.90;;;;;;5068686;28;20076;-66
2021/12/12 11:03:07;;;;;;;27.20;16.77;;;7.90;99.90;;;;;;5073480;28;20058;-65
2021/12/12 11:06:16;;;;;;;31.27;17.88;;;7.90;99.90;;;;;;5090173;28;20482;-65
2021/12/12 11:08:52;;;;;;;25.85;15.13;;;7.90;99.90;;;;;;5023007;28;20064;-66
2021/12/12 11:11:27;;;;;;;26.77;15.93;;;7.90;99.90;;;;;;5023057;28;20069;-66
2021/12/12 11:14:24;;;;;;;24.67;15.25;;;7.90;99.90;;;;;;4995510;28;20061;-65
2021/12/12 11:16:55;;;;;;;27.25;14.65;;;7.90;99.90;;;;;;4984443;28;20489;-65
2021/12/12 11:19:46;;;;;;;25.38;15.82;;;8.00;99.90;;;;;;5000197;28;20073;-65
2021/12/12 11:22:30;;;;;;;26.13;15.68;;;8.00;99.90;;;;;;4995488;28;20134;-65
2021/12/12 11:25:04;;;;;;;23.60;14.40;;;8.00;99.90;;;;;;4978799;28;20280;-65
2021/12/12 11:27:42;;;;;;;23.50;13.90;;;8.10;99.90;;;;;;5001340;28;20077;-65
2021/12/12 11:30:21;;;;;;;22.25;14.13;;;8.10;99.90;;;;;;4990324;28;20048;-65
2021/12/12 11:32:50;;;;;;;21.35;13.25;;;8.10;99.90;;;;;;4987605;28;20108;-65
2021/12/12 11:35:20;;;;;;;20.83;13.57;;;8.20;99.90;;;;;;5015410;28;20049;-65
2021/12/12 11:37:55;;;;;;;20.80;13.60;;;8.20;99.90;;;;;;5009584;28;20073;-65
2021/12/12 11:40:37;;;;;;;24.42;16.30;;;8.20;99.90;;;;;;5041409;28;20049;-65
2021/12/12 11:43:34;;;;;;;18.38;12.73;;;8.30;99.90;;;;;;5042023;28;20064;-65
2021/12/12 11:46:10;;;;;;;21.38;13.20;;;8.30;99.90;;;;;;5005909;28;20090;-66
2021/12/12 11:48:54;;;;;;;22.25;13.60;;;8.30;99.90;;;;;;5071137;28;20135;-65
2021/12/12 11:51:42;;;;;;;21.27;13.20;;;8.40;99.90;;;;;;5073028;28;20028;-65
2021/12/12 11:54:32;;;;;;;22.08;14.52;;;8.30;99.90;;;;;;5029584;28;20448;-65
2021/12/12 11:57:15;;;;;;;22.77;14.20;;;8.40;99.90;;;;;;5050028;28;20040;-65
2021/12/12 12:00:09;;;;;;;23.55;13.93;;;8.40;99.90;;;;;;5056769;28;20126;-65
2021/12/12 12:02:53;;;;;;;21.42;13.57;;;8.40;99.90;;;;;;5043269;28;20110;-65
2021/12/12 12:05:47;;;;;;;22.05;14.15;;;8.40;99.90;;;;;;5053187;28;20044;-66
2021/12/12 12:08:44;;;;;;;20.15;12.90;;;8.50;99.90;;;;;;5046763;28;20072;-64
2021/12/12 12:11:42;;;;;;;22.95;14.85;;;8.40;99.90;;;;;;5048871;28;20060;-64
2021/12/12 12:14:14;;;;;;;22.80;13.43;;;8.50;99.90;;;;;;5058574;28;20049;-64
2021/12/12 12:16:53;;;;;;;25.13;14.93;;;8.50;99.90;;;;;;5041054;28;20045;-64
2021/12/12 12:19:53;;;;;;;22.38;13.63;;;8.60;99.90;;;;;;5050715;28;20060;-66
2021/12/12 12:22:33;;;;;;;26.17;14.05;;;8.50;99.90;;;;;;5044654;28;20453;-65
2021/12/12 12:25:18;;;;;;;21.45;13.65;;;8.50;99.90;;;;;;5057403;28;20053;-65
2021/12/12 12:27:57;;;;;;;23.92;13.38;;;8.50;99.90;;;;;;5084854;28;20045;-65
2021/12/12 12:30:29;;;;;;;25.85;13.68;;;8.50;99.90;;;;;;5071829;28;20060;-65
2021/12/12 12:33:13;;;;;;;24.40;13.65;;;8.60;99.90;;;;;;5064047;28;20043;-65
2021/12/12 12:36:01;;;;;;;24.98;14.05;;;8.60;99.90;;;;;;5072904;28;20105;-65
2021/12/12 12:39:06;;;;;;;22.35;13.73;;;8.60;99.90;;;;;;5063075;28;20399;-65
2021/12/12 12:42:00;;;;;;;26.17;14.00;;;8.70;99.90;;;;;;5071066;28;20127;-65
2021/12/12 12:45:03;;;;;;;29.80;14.85;;;8.70;99.90;;;;;;5067577;28;20044;-65
2021/12/12 12:47:40;;;;;;;31.20;16.15;;;8.70;99.90;;;;;;5078129;28;20600;-65
2021/12/12 12:50:36;;;;;;;30.27;16.38;;;8.70;99.90;;;;;;5075872;28;20045;-65
2021/12/12 12:53:23;;;;;;;25.33;14.43;;;8.80;99.90;;;;;;5013688;28;20064;-65
2021/12/12 12:56:08;;;;;;;31.88;15.70;;;8.80;99.90;;;;;;5049324;28;20049;-65
2021/12/12 12:58:40;;;;;;;32.15;16.05;;;8.80;99.90;;;;;;5033423;28;20080;-65
2021/12/12 13:01:20;;;;;;;29.67;15.60;;;8.80;99.90;;;;;;5048703;28;20042;-66
2021/12/12 13:03:48;;;;;;;;;;;8.80;99.90;;;;;;5024368;28;20527;-65
2021/12/12 13:06:51;;;;;;;32.40;16.15;;;8.80;99.90;;;;;;5037187;28;20008;-65
2021/12/12 13:09:48;;;;;;;30.30;15.65;;;8.80;99.90;;;;;;5037088;28;20041;-65
2021/12/12 13:12:35;;;;;;;32.20;16.05;;;8.80;99.90;;;;;;5032393;28;20560;-65
2021/12/12 13:15:16;;;;;;;36.95;24.70;;;8.90;99.90;;;;;;5046034;28;20831;-65
2021/12/12 13:18:17;;;;;;;31.00;16.77;;;8.90;99.90;;;;;;5028718;28;20063;-67
2021/12/12 13:20:42;;;;;;;33.38;17.85;;;8.90;99.90;;;;;;5033089;28;20045;-65
2021/12/12 13:23:19;;;;;;;32.97;16.17;;;9.00;99.90;;;;;;5022955;28;20599;-65
2021/12/12 13:26:07;;;;;;;31.70;16.48;;;9.00;99.90;;;;;;4999700;28;20049;-66
2021/12/12 13:28:56;;;;;;;30.30;15.68;;;9.00;99.90;;;;;;5019725;28;20095;-66
2021/12/12 13:31:39;;;;;;;31.98;16.10;;;9.10;99.90;;;;;;5070549;28;20048;-65
2021/12/12 13:34:19;;;;;;;33.15;16.75;;;9.10;99.90;;;;;;5047289;28;20516;-65
2021/12/12 13:37:04;;;;;;;28.17;15.10;;;9.20;99.90;;;;;;5041992;28;20041;-65